Cheyenne, WY (82008)

9:33 AM MDT on October 02, 2014 (GMT -0600)
Bison Crossing | Change Station
CLOSE
Current Station
Personal Weather Station
Location: Cheyenne, WY
Elevation: 6110 ft
Nearby Weather Stations

Elev 6110 ft 41.07 °N, 104.81 °W | Updated 1 minute ago

Clear
Clear
46.1 °F
Feels Like 41 °F
N
10.0
Wind Variable Wind from West
Gusts 13.0 mph

Today
High -- | Low -- °F
--% Chance of Precip.
Yesterday
High -- | Low -- °F
Precip. -- in
6:57 AM 6:39 PM
First Quarter, 59% visible
Pressure 30.08 in
Visibility 10.0 miles
Clouds Clear
Windchill 41 °F
Dew Point 34 °F
Humidity 62%
Rainfall 0.00 in
Snow Depth 2 in , 1 in , 0 in
UV 2 out of 12
Pollen 3.80 out of 12
Air Quality Not available.
Flu Activity Not available.
METAR KFEW 021456Z AUTO 30007KT 10SM CLR 06/M01 A3010 RMK AO2 SLP184 T00551006 52006 $

More Conditions Fewer Conditions

Pressure 30.08 in
Visibility 10.0 miles
Clouds Clear
Windchill 41 °F
Dew Point 34 °F
Humidity 62%
Rainfall 0.00 in
Snow Depth 2 in , 1 in , 0 in
UV 2 out of 12
Pollen 3.80 out of 12
Air Quality Not available.
Flu Activity Not available.
METAR KFEW 021456Z AUTO 30007KT 10SM CLR 06/M01 A3010 RMK AO2 SLP184 T00551006 52006 $

More Conditions Fewer Conditions

10-Day Weather Forecast

Almanac

Astronomy

Oct. 02, 2014 Rise Set
Actual Time 6:57 AM MDT 6:39 PM MDT
Civil Twilight 6:29 AM MDT 7:06 PM MDT
Nautical Twilight 5:57 AM MDT 7:38 PM MDT
Astronomical Twilight 5:25 AM MDT 8:10 PM MDT
Moon 2:50 PM MDT 12:13 AM MDT
Length of Visible Light 12h 37m
Length of Day
11h 42m
Tomorrow will be 2m 41s shorter.
First Quarter, 59% of the Moon is Illuminated
Today
First Quarter
Oct 8
Full
Oct 15
Last Quarter
Oct 23
New
Oct 30
First Quarter

Today's Extremes

State Highs State Lows

Community

WunderPhotos

Upload Photos

1,758,276 photos uploaded!

WunderBlogs® & News

Nearby

Snow Depth

Station Depth Elevation
Blackwater 2 in 9780 ft
Brooklyn Lake 1 in 10220 ft
Dome Lake 0 in 8880 ft
Little Warm 0 in 9370 ft
Lewis Lake Divide 1 in 7850 ft

Earthquake Activity

City Distance Mag. Time & Date
No recent earthquake activity has been reported nearby.
Minimum magnitude displayed is 2.5.

Coastal Water Temperatures

Place Temperature
No Stations Reporting

Nearby Weather Stations